MSP weather

Minneapolis-St Paul International/Wold-Chamberlain Airport
Minneapolis, Minnesota, United States

Public forecast

Using degrees Fahrenheit for public forecast. Weather courtesy of forecast.io.

METAR (pilot weather report)

Retrieved 2017/09/25 06:53 UTC (19 minutes ago):

KMSP 250653Z 29006KT 10SM SCT013 OVC085 20/18 A2994 RMK AO2 RAB32E41 SLP134 P0000 T02000178

TAF (pilot weather forecast)

Retrieved 2017/09/25 06:54 UTC (18 minutes ago):

TAF COR KMSP 250551Z 2506/2612 28007KT P6SM VCSH BKN015 OVC090 FM250900 35006KT 6SM -RA BR OVC012 FM251800 36007KT 6SM BR VCSH OVC020